Time;durP1;ratioP1;P1;durP2;ratioP2;P2;SDS_P1;SDS_P2;PMS_P1;PMS_P2;Temp;Humidity;BMP_temperature;BMP_pressure;BME280_temperature;BME280_humidity;BME280_pressure;Samples;Min_cycle;Max_cycle;Signal;HPM_P1;HPM_P2
2022/03/17 00:02:05;;;;;;;3.25;2.10;;;;;;;21.19;nan;99623.66;5117260;28;20122;-59
2022/03/17 00:04:31;;;;;;;3.40;1.90;;;;;;;21.20;nan;99621.69;5118421;28;20077;-59
2022/03/17 00:06:57;;;;;;;3.33;2.00;;;;;;;21.19;nan;99626.44;5116299;28;20062;-59
2022/03/17 00:09:23;;;;;;;2.90;1.90;;;;;;;21.17;nan;99626.03;5117676;28;20486;-59
2022/03/17 00:11:48;;;;;;;2.35;1.55;;;;;;;21.15;nan;99626.41;5116552;28;20035;-59
2022/03/17 00:14:14;;;;;;;3.08;1.90;;;;;;;21.17;nan;99626.03;5115875;28;20046;-59
2022/03/17 00:16:40;;;;;;;2.83;1.85;;;;;;;21.14;nan;99627.56;5115086;28;20043;-59
2022/03/17 00:19:08;;;;;;;2.70;1.90;;;;;;;21.14;nan;99637.88;5116072;28;20053;-59
2022/03/17 00:21:37;;;;;;;3.05;2.00;;;;;;;21.11;nan;99633.06;5115589;28;20044;-59
2022/03/17 00:24:07;;;;;;;2.90;1.90;;;;;;;21.09;nan;99633.44;5117572;28;20158;-59
2022/03/17 00:26:33;;;;;;;3.65;2.10;;;;;;;21.09;nan;99622.31;5117844;27;20043;-59
2022/03/17 00:28:58;;;;;;;2.55;1.70;;;;;;;21.09;nan;99627.09;5116897;28;20044;-59
2022/03/17 00:31:24;;;;;;;3.08;1.90;;;;;;;21.09;nan;99629.88;5118032;28;20039;-59
2022/03/17 00:33:49;;;;;;;3.15;1.90;;;;;;;21.10;nan;99634.25;5118970;28;20096;-59
2022/03/17 00:36:15;;;;;;;3.08;1.95;;;;;;;21.10;nan;99632.28;5116539;28;20471;-59
2022/03/17 00:38:40;;;;;;;2.90;1.83;;;;;;;21.07;nan;99630.22;5118144;28;20141;-60
2022/03/17 00:41:06;;;;;;;2.53;1.67;;;;;;;21.08;nan;99629.06;5116695;28;20044;-60
2022/03/17 00:43:34;;;;;;;3.78;2.00;;;;;;;21.09;nan;99625.09;5116585;28;20128;-59
2022/03/17 00:45:59;;;;;;;2.30;1.80;;;;;;;21.10;nan;99635.03;5113756;28;20054;-59
2022/03/17 00:48:25;;;;;;;2.92;2.00;;;;;;;21.09;nan;99629.88;5116908;28;20043;-59
2022/03/17 00:50:50;;;;;;;3.80;2.00;;;;;;;21.11;nan;99631.09;5117937;28;20032;-58
2022/03/17 00:53:16;;;;;;;2.90;1.70;;;;;;;21.11;nan;99624.72;5115649;28;20050;-58
2022/03/17 00:55:41;;;;;;;2.60;1.63;;;;;;;21.10;nan;99634.25;5116428;28;20035;-58
2022/03/17 00:58:07;;;;;;;2.63;1.90;;;;;;;21.09;nan;99632.66;5115106;28;20134;-59
2022/03/17 01:00:32;;;;;;;3.08;1.73;;;;;;;21.10;nan;99634.25;5115545;28;20071;-59
2022/03/17 01:02:58;;;;;;;3.05;1.80;;;;;;;21.09;nan;99633.44;5117043;28;20092;-58
2022/03/17 01:05:24;;;;;;;3.35;1.85;;;;;;;21.10;nan;99637.03;5114720;28;20445;-59
2022/03/17 01:07:53;;;;;;;2.90;1.90;;;;;;;21.08;nan;99637.41;5115570;28;20046;-59
2022/03/17 01:10:19;;;;;;;2.50;1.90;;;;;;;21.08;nan;99634.63;5113871;28;20062;-59
2022/03/17 01:12:48;;;;;;;2.55;1.73;;;;;;;21.11;nan;99641.41;5117720;28;20054;-58
2022/03/17 01:15:16;;;;;;;3.03;1.80;;;;;;;21.10;nan;99635.03;5118624;28;20031;-59
2022/03/17 01:17:42;;;;;;;2.67;1.83;;;;;;;21.08;nan;99631.84;5116448;28;20043;-58
2022/03/17 01:20:09;;;;;;;3.40;2.08;;;;;;;21.07;nan;99623.84;5117105;28;20043;-58
2022/03/17 01:22:35;;;;;;;3.50;2.17;;;;;;;21.07;nan;99630.22;5116855;28;20032;-59
2022/03/17 01:25:01;;;;;;;2.70;1.90;;;;;;;21.08;nan;99631.84;5116035;28;20039;-59
2022/03/17 01:27:29;;;;;;;2.75;1.80;;;;;;;21.09;nan;99625.09;5116975;28;20047;-59
2022/03/17 01:29:55;;;;;;;3.25;2.15;;;;;;;21.09;nan;99627.09;5117136;28;20031;-59
2022/03/17 01:32:21;;;;;;;3.20;1.92;;;;;;;21.08;nan;99625.47;5118813;28;20045;-59
2022/03/17 01:34:47;;;;;;;3.33;2.08;;;;;;;21.10;nan;99628.69;5115633;28;20075;-59
2022/03/17 01:37:13;;;;;;;2.95;1.88;;;;;;;21.08;nan;99634.63;5110528;28;20130;-58
2022/03/17 01:39:39;;;;;;;2.72;1.83;;;;;;;21.10;nan;99628.69;5080935;28;20060;-58
2022/03/17 01:42:07;;;;;;;2.72;1.80;;;;;;;21.09;nan;99627.88;5083480;28;20046;-59
2022/03/17 01:44:34;;;;;;;2.35;1.60;;;;;;;21.09;nan;99621.53;5084238;28;20106;-58
2022/03/17 01:49:44;;;;;;;2.88;2.03;;;;;;;21.10;nan;99635.03;5080800;28;20131;-58
2022/03/17 01:52:10;;;;;;;3.00;2.10;;;;;;;21.09;nan;99629.88;5082195;28;20115;-59
2022/03/17 01:54:36;;;;;;;3.58;2.10;;;;;;;21.09;nan;99636.22;5083064;28;20044;-59
2022/03/17 01:57:03;;;;;;;3.05;1.63;;;;;;;21.10;nan;99634.25;5081184;28;20040;-58
2022/03/17 01:59:31;;;;;;;2.92;1.92;;;;;;;21.09;nan;99625.09;5082966;28;20048;-58
2022/03/17 02:01:57;;;;;;;3.50;2.20;;;;;;;21.09;nan;99624.31;5079306;28;20516;-58
2022/03/17 02:04:24;;;;;;;3.00;2.03;;;;;;;21.09;nan;99615.97;5081689;28;20056;-59
2022/03/17 02:06:50;;;;;;;2.90;1.80;;;;;;;21.09;nan;99618.75;5080895;28;20053;-59
2022/03/17 02:09:16;;;;;;;2.80;1.90;;;;;;;21.08;nan;99617.13;5080749;28;20037;-58
2022/03/17 02:14:28;;;;;;;2.78;2.05;;;;;;;21.08;nan;99617.13;5080613;28;20082;-58
2022/03/17 02:16:53;;;;;;;2.80;1.90;;;;;;;21.07;nan;99619.09;5079061;28;20060;-58
2022/03/17 02:19:22;;;;;;;3.03;1.95;;;;;;;21.08;nan;99612.38;5077689;28;20091;-59
2022/03/17 02:21:49;;;;;;;2.67;1.80;;;;;;;21.08;nan;99614.34;5079209;28;20047;-59
2022/03/17 02:27:02;;;;;;;2.97;2.08;;;;;;;21.08;nan;99620.72;5072553;28;20107;-59
2022/03/17 02:29:27;;;;;;;3.00;2.10;;;;;;;21.09;nan;99615.97;5082890;28;20040;-59
2022/03/17 02:31:53;;;;;;;3.05;2.20;;;;;;;21.07;nan;99616.31;5083627;28;20042;-59
2022/03/17 02:34:19;;;;;;;3.67;2.13;;;;;;;21.05;nan;99615.09;5081221;28;20070;-59
2022/03/17 02:36:50;;;;;;;3.72;2.58;;;;;;;21.08;nan;99609.59;5082707;28;20399;-59
2022/03/17 02:39:17;;;;;;;3.00;2.17;;;;;;;21.07;nan;99613.53;5081088;28;20051;-59
2022/03/17 02:41:42;;;;;;;4.45;2.33;;;;;;;21.08;nan;99603.22;5082032;28;20052;-59
2022/03/17 02:44:09;;;;;;;3.45;2.10;;;;;;;21.09;nan;99615.97;5080530;28;20070;-59
2022/03/17 02:46:34;;;;;;;3.10;2.22;;;;;;;21.10;nan;99618.34;5065400;28;20044;-59
2022/03/17 02:49:00;;;;;;;3.95;2.28;;;;;;;21.10;nan;99614.78;5080912;28;20071;-59
2022/03/17 02:51:25;;;;;;;3.00;2.20;;;;;;;21.10;nan;99614.78;5083300;28;20047;-59
2022/03/17 02:53:51;;;;;;;2.80;1.90;;;;;;;21.09;nan;99622.31;5084924;28;20036;-59
2022/03/17 02:56:16;;;;;;;3.72;2.50;;;;;;;21.10;nan;99623.91;5082505;28;20029;-59
2022/03/17 02:58:42;;;;;;;3.20;2.15;;;;;;;21.09;nan;99622.31;5083293;28;20049;-59
2022/03/17 03:01:07;;;;;;;3.80;2.40;;;;;;;21.09;nan;99618.75;5082879;28;20097;-59
2022/03/17 03:03:33;;;;;;;4.40;2.30;;;;;;;21.09;nan;99624.31;5082533;28;20134;-59
2022/03/17 03:05:58;;;;;;;3.30;2.40;;;;;;;21.09;nan;99627.09;5082588;28;20497;-59
2022/03/17 03:08:24;;;;;;;3.30;2.33;;;;;;;21.08;nan;99631.84;5080341;28;20416;-59
2022/03/17 03:10:49;;;;;;;3.47;2.42;;;;;;;21.07;nan;99618.28;5084304;28;20400;-59
2022/03/17 03:13:15;;;;;;;3.00;2.25;;;;;;;21.08;nan;99625.47;5083514;28;20097;-58
2022/03/17 03:15:41;;;;;;;3.25;2.08;;;;;;;21.08;nan;99626.28;5085393;28;20132;-58
2022/03/17 03:18:07;;;;;;;4.03;2.63;;;;;;;21.07;nan;99629.41;5086599;28;20441;-59
2022/03/17 03:20:32;;;;;;;3.50;2.70;;;;;;;21.07;nan;99629.41;5085480;28;20563;-59
2022/03/17 03:22:58;;;;;;;3.05;2.28;;;;;;;21.07;nan;99624.66;5085740;28;20040;-59
2022/03/17 03:25:23;;;;;;;3.80;2.42;;;;;;;21.09;nan;99621.53;5084993;28;20044;-59
2022/03/17 03:27:49;;;;;;;4.15;2.50;;;;;;;21.09;nan;99629.88;5085058;28;20052;-59
2022/03/17 03:30:15;;;;;;;3.53;2.35;;;;;;;21.08;nan;99625.47;5085699;28;20036;-59
2022/03/17 03:32:47;;;;;;;3.30;2.20;;;;;;;21.08;nan;99631.03;5083123;28;20037;-59
2022/03/17 03:37:58;;;;;;;3.83;2.20;;;;;;;21.06;nan;99625.03;5083299;28;20079;-59
2022/03/17 03:40:24;;;;;;;3.60;2.33;;;;;;;21.06;nan;99623.03;5081950;28;20071;-59
2022/03/17 03:42:49;;;;;;;3.95;2.50;;;;;;;21.07;nan;99623.84;5083237;28;20067;-59
2022/03/17 03:45:14;;;;;;;2.80;2.03;;;;;;;21.06;nan;99622.25;5083773;28;20090;-59
2022/03/17 03:47:40;;;;;;;3.30;2.20;;;;;;;21.07;nan;99627.44;5081881;28;20037;-59
2022/03/17 03:50:06;;;;;;;3.10;2.20;;;;;;;21.05;nan;99629.00;5083061;28;20443;-59
2022/03/17 03:52:32;;;;;;;3.65;2.20;;;;;;;21.04;nan;99630.97;5082125;28;20091;-60
2022/03/17 03:54:57;;;;;;;4.43;2.22;;;;;;;21.06;nan;99638.94;5082742;28;20053;-59
2022/03/17 03:57:24;;;;;;;3.05;2.25;;;;;;;21.06;nan;99638.94;5081946;28;20040;-59
2022/03/17 03:59:49;;;;;;;3.15;2.20;;;;;;;21.06;nan;99639.72;5081230;28;20032;-59
2022/03/17 04:02:14;;;;;;;3.65;2.30;;;;;;;21.06;nan;99638.94;5082323;28;20412;-59
2022/03/17 04:04:40;;;;;;;3.30;2.28;;;;;;;21.05;nan;99642.88;5079763;28;20064;-59
2022/03/17 04:07:10;;;;;;;3.20;2.28;;;;;;;21.05;nan;99642.88;5080901;28;20417;-58
2022/03/17 04:09:41;;;;;;;3.03;1.98;;;;;;;21.04;nan;99642.09;5082335;28;20519;-58
2022/03/17 04:12:09;;;;;;;2.92;2.20;;;;;;;21.05;nan;99643.69;5082806;28;20471;-58
2022/03/17 04:14:34;;;;;;;3.35;2.17;;;;;;;21.05;nan;99640.91;5086029;28;20440;-59
2022/03/17 04:17:00;;;;;;;3.45;2.15;;;;;;;21.06;nan;99647.28;5083482;28;20040;-59
2022/03/17 04:19:26;;;;;;;3.08;1.98;;;;;;;21.07;nan;99648.88;5085135;28;20063;-59
2022/03/17 04:21:53;;;;;;;3.30;2.13;;;;;;;21.06;nan;99645.28;5083825;28;20055;-58
2022/03/17 04:24:19;;;;;;;3.10;2.17;;;;;;;21.05;nan;99642.88;5083764;28;20472;-59
2022/03/17 04:26:45;;;;;;;3.42;2.10;;;;;;;21.07;nan;99652.47;5081683;28;20067;-58
2022/03/17 04:29:12;;;;;;;3.00;2.00;;;;;;;21.06;nan;99650.06;5083356;28;20048;-58
2022/03/17 04:31:39;;;;;;;3.45;2.20;;;;;;;21.04;nan;99653.22;5083982;28;20586;-58
2022/03/17 04:34:04;;;;;;;3.30;2.20;;;;;;;21.07;nan;99654.44;5081733;28;20066;-58
2022/03/17 04:36:33;;;;;;;3.33;2.28;;;;;;;21.06;nan;99655.63;5081404;28;20071;-59
2022/03/17 04:39:00;;;;;;;3.92;2.40;;;;;;;21.07;nan;99657.22;5085908;28;20074;-59
2022/03/17 04:41:26;;;;;;;3.05;2.25;;;;;;;21.08;nan;99658.84;5090709;28;20048;-58
2022/03/17 04:43:52;;;;;;;3.13;2.13;;;;;;;21.08;nan;99658.84;5090618;28;20491;-58
2022/03/17 04:46:17;;;;;;;2.70;2.00;;;;;;;21.08;nan;99656.06;5090240;28;20548;-58
2022/03/17 04:48:43;;;;;;;3.00;2.05;;;;;;;21.09;nan;99652.13;5090640;28;20048;-59
2022/03/17 04:51:08;;;;;;;2.97;2.00;;;;;;;21.08;nan;99653.28;5090446;28;20040;-59
2022/03/17 04:53:34;;;;;;;3.40;2.35;;;;;;;21.08;nan;99659.66;5090738;28;20059;-59
2022/03/17 04:56:05;;;;;;;3.22;2.28;;;;;;;21.09;nan;99655.69;5090360;28;20044;-59
2022/03/17 04:58:33;;;;;;;3.33;2.03;;;;;;;21.08;nan;99656.06;5090182;28;20075;-59
2022/03/17 05:01:02;;;;;;;3.38;2.20;;;;;;;21.07;nan;99660.81;5090499;28;20032;-58
2022/03/17 05:03:28;;;;;;;3.42;2.33;;;;;;;21.09;nan;99666.81;5090422;28;20062;-58
2022/03/17 05:05:54;;;;;;;2.95;2.17;;;;;;;21.09;nan;99663.25;5090054;28;20123;-60
2022/03/17 05:08:20;;;;;;;3.30;2.17;;;;;;;21.10;nan;99664.84;5090521;28;20044;-59
2022/03/17 05:10:47;;;;;;;3.78;2.65;;;;;;;21.08;nan;99668.00;5090042;28;20070;-60
2022/03/17 05:13:13;;;;;;;3.50;2.17;;;;;;;21.06;nan;99667.53;5089565;28;20055;-59
2022/03/17 05:15:39;;;;;;;3.38;2.25;;;;;;;21.06;nan;99663.97;5090159;28;20497;-59
2022/03/17 05:18:06;;;;;;;3.55;2.22;;;;;;;21.05;nan;99659.56;5089953;28;20036;-59
2022/03/17 05:20:33;;;;;;;3.22;2.45;;;;;;;21.05;nan;99665.13;5090282;28;20074;-58
2022/03/17 05:22:58;;;;;;;3.13;2.22;;;;;;;21.04;nan;99671.88;5090169;28;20054;-59
2022/03/17 05:25:24;;;;;;;3.25;2.22;;;;;;;21.05;nan;99674.28;5090030;28;20044;-59
2022/03/17 05:27:49;;;;;;;3.80;2.28;;;;;;;21.04;nan;99674.66;5090219;28;20047;-59
2022/03/17 05:30:16;;;;;;;2.92;2.10;;;;;;;21.03;nan;99675.84;5090104;28;20046;-60
2022/03/17 05:32:47;;;;;;;3.63;2.55;;;;;;;21.00;nan;99679.34;5090040;28;20101;-58
2022/03/17 05:35:13;;;;;;;2.78;1.92;;;;;;;21.02;nan;99671.47;5083429;28;20522;-59
2022/03/17 05:37:39;;;;;;;4.20;2.60;;;;;;;21.01;nan;99673.44;5069387;28;20044;-59
2022/03/17 05:40:13;;;;;;;2.97;2.05;;;;;;;20.99;nan;99667.41;5069594;28;20451;-59
2022/03/17 05:42:39;;;;;;;3.13;2.20;;;;;;;20.98;nan;99665.00;5069866;28;20036;-58
2022/03/17 05:45:05;;;;;;;3.17;2.22;;;;;;;20.97;nan;99669.78;5069395;28;20048;-59
2022/03/17 05:47:38;;;;;;;3.35;2.40;;;;;;;20.96;nan;99672.94;5069495;28;20044;-58
2022/03/17 05:50:09;;;;;;;2.90;2.05;;;;;;;20.97;nan;99674.53;5069460;28;20049;-59
2022/03/17 05:52:36;;;;;;;3.65;2.20;;;;;;;20.97;nan;99674.53;5069427;28;20057;-58
2022/03/17 05:55:02;;;;;;;2.97;2.00;;;;;;;20.98;nan;99684.47;5069636;28;20041;-58
2022/03/17 05:57:28;;;;;;;3.28;2.30;;;;;;;20.98;nan;99685.28;5069413;28;20064;-58
2022/03/17 05:59:53;;;;;;;3.90;2.72;;;;;;;20.99;nan;99692.44;5069354;28;20044;-59
2022/03/17 06:02:19;;;;;;;3.83;2.40;;;;;;;20.99;nan;99700.00;5069442;28;20036;-59
2022/03/17 06:04:46;;;;;;;3.90;2.22;;;;;;;20.99;nan;99705.53;5069317;28;20041;-59
2022/03/17 06:07:11;;;;;;;3.60;2.30;;;;;;;20.99;nan;99705.53;5069017;28;20032;-58
2022/03/17 06:09:38;;;;;;;2.97;2.20;;;;;;;21.00;nan;99701.59;5069053;28;20420;-59
2022/03/17 06:12:05;;;;;;;3.70;2.53;;;;;;;21.02;nan;99707.59;5069032;28;20127;-59
2022/03/17 06:14:32;;;;;;;2.75;2.03;;;;;;;21.02;nan;99705.63;5069349;28;20417;-58
2022/03/17 06:16:58;;;;;;;3.28;2.17;;;;;;;21.03;nan;99707.22;5069272;28;20036;-58
2022/03/17 06:19:23;;;;;;;2.83;2.00;;;;;;;21.04;nan;99710.81;5068853;28;20048;-59
2022/03/17 06:21:49;;;;;;;2.90;2.00;;;;;;;21.05;nan;99715.19;5069370;28;20056;-59
2022/03/17 06:24:14;;;;;;;3.13;2.05;;;;;;;21.06;nan;99714.81;5069644;28;20465;-59
2022/03/17 06:26:40;;;;;;;3.17;2.03;;;;;;;21.07;nan;99721.19;5072368;28;20083;-58
2022/03/17 06:29:05;;;;;;;2.80;1.95;;;;;;;21.06;nan;99714.03;5072781;28;20041;-59
2022/03/17 06:31:31;;;;;;;2.67;2.05;;;;;;;21.08;nan;99720.03;5072609;28;20048;-59
2022/03/17 06:33:56;;;;;;;3.33;2.10;;;;;;;21.09;nan;99728.00;5072685;28;20036;-58
2022/03/17 06:36:22;;;;;;;2.70;1.90;;;;;;;21.13;nan;99725.28;5072306;28;20045;-59
2022/03/17 06:38:48;;;;;;;3.03;1.92;;;;;;;21.17;nan;99735.31;5072303;28;20444;-58
2022/03/17 06:41:13;;;;;;;3.40;2.30;;;;;;;21.17;nan;99734.50;5072739;28;20044;-58
2022/03/17 06:43:39;;;;;;;2.90;1.95;;;;;;;21.19;nan;99732.16;5072540;28;20040;-58
2022/03/17 06:46:04;;;;;;;3.58;1.98;;;;;;;21.20;nan;99735.72;5072033;28;20055;-58
2022/03/17 06:48:29;;;;;;;3.58;2.30;;;;;;;21.20;nan;99738.50;5072191;28;20056;-58
2022/03/17 06:50:55;;;;;;;3.20;2.30;;;;;;;21.22;nan;99736.16;5072240;28;20048;-58
2022/03/17 06:53:20;;;;;;;3.25;2.10;;;;;;;21.19;nan;99740.50;5071984;28;20040;-58
2022/03/17 06:55:46;;;;;;;3.17;2.20;;;;;;;21.21;nan;99740.91;5072056;28;20036;-58
2022/03/17 06:58:11;;;;;;;5.68;2.72;;;;;;;21.22;nan;99744.50;5071856;28;20052;-58
2022/03/17 07:00:36;;;;;;;3.70;2.42;;;;;;;21.22;nan;99750.06;5071927;28;20044;-58
2022/03/17 07:03:02;;;;;;;3.08;2.10;;;;;;;21.22;nan;99764.81;5072097;28;20041;-58
2022/03/17 07:05:28;;;;;;;3.75;2.33;;;;;;;21.22;nan;99758.41;5071974;28;20076;-58
2022/03/17 07:07:53;;;;;;;5.78;2.38;;;;;;;21.22;nan;99761.19;5071830;28;20051;-58
2022/03/17 07:10:18;;;;;;;4.60;2.15;;;;;;;21.24;nan;99765.25;5072342;28;20512;-59
2022/03/17 07:12:46;;;;;;;3.45;2.45;;;;;;;21.23;nan;99763.63;5071937;28;20055;-60
2022/03/17 07:15:12;;;;;;;3.80;2.45;;;;;;;21.22;nan;99770.38;5071896;28;20506;-60
2022/03/17 07:17:42;;;;;;;3.10;2.33;;;;;;;21.22;nan;99775.94;5071781;28;20412;-60
2022/03/17 07:20:15;;;;;;;3.97;2.72;;;;;;;21.24;nan;99781.13;5071513;28;20055;-60
2022/03/17 07:22:50;;;;;;;3.70;2.50;;;;;;;21.21;nan;99779.88;5071833;28;20098;-60
2022/03/17 07:25:21;;;;;;;3.90;2.50;;;;;;;21.21;nan;99782.66;5071575;28;20087;-58
2022/03/17 07:27:48;;;;;;;4.45;2.45;;;;;;;21.22;nan;99789.00;5071695;28;20512;-58
2022/03/17 07:30:22;;;;;;;3.30;2.60;;;;;;;21.22;nan;99791.78;5071630;28;20033;-58
2022/03/17 07:32:52;;;;;;;4.07;2.60;;;;;;;21.21;nan;99791.00;5071532;28;20127;-60
2022/03/17 07:35:18;;;;;;;4.13;2.75;;;;;;;21.21;nan;99795.75;5071035;28;20047;-60
2022/03/17 07:37:44;;;;;;;3.80;2.63;;;;;;;21.20;nan;99800.53;5071620;28;20417;-60
2022/03/17 07:40:10;;;;;;;3.38;2.53;;;;;;;21.22;nan;99797.38;5071173;28;20044;-60
2022/03/17 07:42:36;;;;;;;4.10;3.10;;;;;;;21.18;nan;99802.88;5071765;28;20040;-60
2022/03/17 07:45:02;;;;;;;3.95;2.72;;;;;;;21.17;nan;99796.50;5078316;28;20040;-60
2022/03/17 07:47:28;;;;;;;4.10;3.00;;;;;;;21.17;nan;99804.06;5089530;28;20036;-60
2022/03/17 07:49:53;;;;;;;3.85;2.60;;;;;;;21.16;nan;99806.03;5073424;28;20037;-60
2022/03/17 07:52:19;;;;;;;3.60;2.60;;;;;;;21.13;nan;99806.75;5087780;28;20051;-60
2022/03/17 07:54:46;;;;;;;3.85;2.83;;;;;;;21.15;nan;99815.56;5089427;28;20052;-60
2022/03/17 07:57:12;;;;;;;3.53;2.60;;;;;;;21.15;nan;99814.75;5084172;28;20105;-60
2022/03/17 07:59:38;;;;;;;3.75;2.75;;;;;;;21.14;nan;99816.69;5084578;28;20403;-60
2022/03/17 08:02:04;;;;;;;3.92;2.58;;;;;;;21.16;nan;99816.34;5078828;28;20083;-60
2022/03/17 08:04:30;;;;;;;4.40;2.85;;;;;;;21.14;nan;99821.47;5082632;28;20477;-60
2022/03/17 08:07:00;;;;;;;3.72;2.45;;;;;;;21.12;nan;99823.81;5080746;28;20040;-59
2022/03/17 08:09:26;;;;;;;4.38;2.60;;;;;;;21.16;nan;99827.47;5076339;28;20039;-61
2022/03/17 08:11:52;;;;;;;4.30;2.97;;;;;;;21.12;nan;99829.38;5048403;28;20052;-59
2022/03/17 08:14:17;;;;;;;5.05;3.40;;;;;;;21.09;nan;99824.56;5078468;28;20048;-61
2022/03/17 08:16:44;;;;;;;4.85;3.08;;;;;;;21.13;nan;99833.75;5082197;28;20438;-60
2022/03/17 08:19:12;;;;;;;3.97;3.05;;;;;;;21.12;nan;99838.53;5070776;28;20048;-60
2022/03/17 08:21:39;;;;;;;4.13;2.97;;;;;;;21.13;nan;99828.19;5073489;28;20093;-60
2022/03/17 08:24:06;;;;;;;3.35;2.53;;;;;;;21.16;nan;99824.69;5068909;28;20080;-60
2022/03/17 08:26:32;;;;;;;4.45;3.03;;;;;;;21.14;nan;99835.38;5070636;28;20051;-62
2022/03/17 08:28:57;;;;;;;4.25;3.08;;;;;;;21.14;nan;99838.16;5066426;28;20504;-61
2022/03/17 08:31:23;;;;;;;4.20;2.90;;;;;;;21.13;nan;99839.31;5070039;28;20394;-59
2022/03/17 08:33:50;;;;;;;4.10;2.88;;;;;;;21.07;nan;99840.78;5071244;28;20048;-60
2022/03/17 08:36:16;;;;;;;4.00;2.80;;;;;;;21.09;nan;99844.81;5076093;28;20032;-60
2022/03/17 08:38:41;;;;;;;4.80;3.10;;;;;;;21.08;nan;99842.41;5088520;28;20162;-61
2022/03/17 08:41:07;;;;;;;3.85;2.60;;;;;;;21.08;nan;99846.00;5076534;28;20132;-60
2022/03/17 08:43:33;;;;;;;3.80;2.80;;;;;;;21.08;nan;99837.66;5076722;28;20067;-60
2022/03/17 08:51:26;;;;;;;4.07;2.75;;;;;;;21.13;nan;99844.88;5085112;28;20546;-60
2022/03/17 08:53:52;;;;;;;3.85;2.67;;;;;;;21.12;nan;99843.28;5075285;28;20059;-60
2022/03/17 08:56:18;;;;;;;3.63;2.40;;;;;;;21.10;nan;99840.06;5079092;28;20469;-60
2022/03/17 08:58:43;;;;;;;3.97;2.85;;;;;;;21.08;nan;99836.84;5078514;28;20097;-60
2022/03/17 09:01:10;;;;;;;3.35;2.60;;;;;;;21.08;nan;99843.22;5082435;28;20043;-60
2022/03/17 09:03:35;;;;;;;3.50;2.40;;;;;;;21.05;nan;99837.56;5087221;28;20520;-59
2022/03/17 09:06:01;;;;;;;4.03;2.83;;;;;;;21.06;nan;99839.97;5086161;28;20036;-60
2022/03/17 09:08:30;;;;;;;4.07;2.83;;;;;;;21.06;nan;99839.97;5088464;28;20059;-60
2022/03/17 09:10:56;;;;;;;4.90;2.80;;;;;;;21.04;nan;99836.78;5080556;28;20071;-60
2022/03/17 09:13:26;;;;;;;3.90;2.85;;;;;;;21.04;nan;99841.53;5067292;28;20508;-61
2022/03/17 09:15:53;;;;;;;4.70;2.70;;;;;;;21.03;nan;99846.28;5072391;28;20519;-60
2022/03/17 09:18:20;;;;;;;3.58;2.42;;;;;;;21.02;nan;99841.09;5067300;28;20127;-59
2022/03/17 09:20:46;;;;;;;3.65;2.40;;;;;;;21.00;nan;99837.84;5070380;28;20055;-59
2022/03/17 09:23:11;;;;;;;4.03;2.80;;;;;;;21.01;nan;99839.50;5066866;28;20041;-59
2022/03/17 09:25:37;;;;;;;4.85;2.97;;;;;;;21.00;nan;99843.41;5071966;28;20492;-60
2022/03/17 09:28:03;;;;;;;4.25;2.90;;;;;;;20.98;nan;99832.66;5067788;28;20044;-57
2022/03/17 09:30:29;;;;;;;4.38;3.13;;;;;;;20.99;nan;99839.84;5069216;28;20137;-57
2022/03/17 09:32:55;;;;;;;6.07;2.83;;;;;;;20.96;nan;99835.00;5070864;28;20075;-57
2022/03/17 09:35:22;;;;;;;3.38;2.60;;;;;;;20.98;nan;99832.66;5069504;28;20044;-58
2022/03/17 09:37:49;;;;;;;4.00;2.97;;;;;;;20.97;nan;99841.38;5085852;28;20047;-58
2022/03/17 09:40:14;;;;;;;4.22;3.00;;;;;;;21.01;nan;99839.50;5127394;28;20074;-57
2022/03/17 09:42:40;;;;;;;3.90;2.70;;;;;;;21.01;nan;99840.28;5117310;28;20120;-57
2022/03/17 09:45:09;;;;;;;3.85;2.78;;;;;;;21.01;nan;99840.28;5124941;28;20031;-58
2022/03/17 09:47:42;;;;;;;3.95;2.72;;;;;;;21.02;nan;99836.34;5097787;28;20077;-58
2022/03/17 09:50:11;;;;;;;4.18;2.70;;;;;;;21.01;nan;99831.16;5110055;28;20035;-58
2022/03/17 09:52:44;;;;;;;4.30;2.97;;;;;;;20.98;nan;99838.22;5107483;28;20430;-58
2022/03/17 09:55:10;;;;;;;3.50;2.58;;;;;;;21.00;nan;99840.63;5107461;28;20088;-58
2022/03/17 09:57:37;;;;;;;5.10;2.83;;;;;;;21.00;nan;99841.44;5106776;28;21607;-57
2022/03/17 10:00:04;;;;;;;3.83;2.78;;;;;;;20.98;nan;99838.22;5099585;28;20039;-57
2022/03/17 10:02:30;;;;;;;4.38;2.58;;;;;;;20.99;nan;99830.69;5114313;28;20092;-57
2022/03/17 10:04:56;;;;;;;3.60;2.53;;;;;;;20.99;nan;99828.72;5117759;28;20131;-58
2022/03/17 10:07:21;;;;;;;3.83;2.55;;;;;;;21.02;nan;99832.75;5126199;28;20611;-58
2022/03/17 10:09:48;;;;;;;4.68;3.00;;;;;;;21.02;nan;99832.75;5112064;28;20038;-58
2022/03/17 10:12:16;;;;;;;4.07;2.53;;;;;;;21.03;nan;99823.22;5121046;28;20051;-57
2022/03/17 10:14:45;;;;;;;3.13;2.40;;;;;;;21.04;nan;99831.22;5120255;28;20078;-57
2022/03/17 10:17:31;;;;;;;5.00;2.80;;;;;;;21.04;nan;99833.19;5103766;28;20137;-58
2022/03/17 10:20:15;;;;;;;5.00;2.72;;;;;;;21.03;nan;99832.38;5116593;28;20446;-57
2022/03/17 10:23:02;;;;;;;5.32;2.63;;;;;;;21.03;nan;99831.59;5115118;27;20047;-58
2022/03/17 10:25:31;;;;;;;3.22;2.35;;;;;;;21.05;nan;99827.25;5105537;28;20058;-58
2022/03/17 10:27:57;;;;;;;5.85;3.20;;;;;;;21.10;nan;99828.94;5113248;28;20047;-57
2022/03/17 10:30:32;;;;;;;4.78;2.50;;;;;;;21.14;nan;99835.38;5113624;28;20036;-58
2022/03/17 10:33:21;;;;;;;5.47;2.90;;;;;;;21.16;nan;99833.03;5115431;28;20031;-62
2022/03/17 10:35:48;;;;;;;3.83;2.72;;;;;;;21.15;nan;99826.69;5119658;28;20038;-64
2022/03/17 10:38:27;;;;;;;4.35;2.90;;;;;;;21.13;nan;99830.97;5108839;28;20502;-63
2022/03/17 10:41:01;;;;;;;8.30;2.65;;;;;;;21.14;nan;99827.81;5115225;28;20340;-61
2022/03/17 10:43:29;;;;;;;3.78;2.55;;;;;;;21.16;nan;99827.47;5109441;28;20077;-62
2022/03/17 10:46:25;;;;;;;4.18;2.70;;;;;;;21.14;nan;99830.59;5109583;28;20044;-61
2022/03/17 10:48:59;;;;;;;4.63;3.05;;;;;;;21.16;nan;99831.06;5121284;28;20413;-61
2022/03/17 10:51:36;;;;;;;4.15;2.78;;;;;;;21.16;nan;99830.25;5115996;28;20035;-61
2022/03/17 10:54:19;;;;;;;6.38;2.95;;;;;;;21.14;nan;99818.69;5117979;28;20411;-61
2022/03/17 10:57:05;;;;;;;3.92;2.85;;;;;;;21.13;nan;99823.44;5109966;28;20050;-62
2022/03/17 10:59:43;;;;;;;3.97;2.80;;;;;;;21.12;nan;99821.03;5119212;28;20039;-62
2022/03/17 11:02:10;;;;;;;5.45;3.17;;;;;;;21.17;nan;99824.31;5113203;28;20055;-62
2022/03/17 11:04:37;;;;;;;4.35;2.55;;;;;;;21.17;nan;99815.97;5111669;27;20048;-62
2022/03/17 11:07:06;;;;;;;6.82;2.65;;;;;;;21.16;nan;99819.13;5113531;28;20038;-62
2022/03/17 11:09:32;;;;;;;6.85;2.60;;;;;;;21.17;nan;99818.75;5115306;27;20133;-62
2022/03/17 11:11:58;;;;;;;6.10;2.78;;;;;;;21.18;nan;99822.34;5111158;28;20448;-62
2022/03/17 11:14:24;;;;;;;3.25;2.20;;;;;;;21.17;nan;99813.19;5133029;28;20503;-62
2022/03/17 11:16:51;;;;;;;5.22;2.40;;;;;;;21.16;nan;99806.03;5133024;28;20466;-62
2022/03/17 11:19:22;;;;;;;6.07;2.65;;;;;;;21.19;nan;99807.25;5131522;28;20419;-61
2022/03/17 11:22:00;;;;;;;4.45;2.80;;;;;;;21.19;nan;99803.69;5132903;28;20515;-60
2022/03/17 11:24:26;;;;;;;4.05;2.42;;;;;;;21.18;nan;99808.44;5123963;28;20047;-60
2022/03/17 11:27:10;;;;;;;3.17;2.22;;;;;;;21.19;nan;99806.47;5118902;28;20468;-60
2022/03/17 11:29:44;;;;;;;5.10;2.42;;;;;;;21.16;nan;99802.44;5124449;28;20126;-59
2022/03/17 11:32:31;;;;;;;4.32;2.40;;;;;;;21.16;nan;99800.47;5107338;28;20127;-60
2022/03/17 11:35:17;;;;;;;3.47;2.42;;;;;;;21.17;nan;99792.91;5112978;28;20135;-60
2022/03/17 11:37:46;;;;;;;3.33;2.22;;;;;;;21.20;nan;99794.94;5113896;28;20047;-60
2022/03/17 11:40:14;;;;;;;3.22;2.20;;;;;;;21.21;nan;99793.78;5109710;27;20081;-60
2022/03/17 11:42:52;;;;;;;3.40;2.40;;;;;;;21.20;nan;99788.59;5107749;28;20100;-60
2022/03/17 11:45:18;;;;;;;3.80;2.65;;;;;;;21.21;nan;99785.44;5110914;28;20043;-60
2022/03/17 11:47:49;;;;;;;3.42;2.20;;;;;;;21.22;nan;99784.28;5116296;28;20499;-60
2022/03/17 11:50:20;;;;;;;3.47;2.10;;;;;;;21.22;nan;99784.28;5122149;28;20119;-60
2022/03/17 11:52:57;;;;;;;3.35;2.17;;;;;;;21.21;nan;99777.09;5113163;28;20044;-60
2022/03/17 11:55:32;;;;;;;3.42;2.10;;;;;;;21.21;nan;99779.06;5116870;28;20189;-59
2022/03/17 11:58:16;;;;;;;3.53;2.28;;;;;;;21.23;nan;99773.97;5122179;28;20116;-60
2022/03/17 12:00:51;;;;;;;3.33;2.22;;;;;;;21.24;nan;99781.94;5116053;27;20039;-60
2022/03/17 12:03:30;;;;;;;3.45;2.35;;;;;;;21.23;nan;99777.53;5121272;27;20475;-60
2022/03/17 12:06:17;;;;;;;4.38;2.33;;;;;;;21.24;nan;99783.91;5115293;27;20047;-60
2022/03/17 12:09:00;;;;;;;4.10;2.40;;;;;;;21.23;nan;99779.53;5112342;27;20143;-60
2022/03/17 12:11:30;;;;;;;5.03;2.30;;;;;;;21.25;nan;99774.38;5125682;28;20035;-61